createdAt,value
2023-03-10T00:01:59.602Z,11.40
2023-03-10T00:05:04.732Z,11.50
2023-03-10T00:08:08.237Z,11.40
2023-03-10T00:11:11.715Z,11.40
2023-03-10T00:14:14.954Z,11.40
2023-03-10T00:17:17.810Z,11.40
2023-03-10T00:20:22.213Z,11.40
2023-03-10T00:23:25.025Z,11.40
2023-03-10T00:26:29.582Z,11.40
2023-03-10T00:29:32.449Z,11.40
2023-03-10T00:32:36.749Z,11.50
2023-03-10T00:35:41.114Z,11.40
2023-03-10T00:38:45.742Z,11.40
2023-03-10T00:41:50.161Z,11.50
2023-03-10T00:44:53.209Z,11.50
2023-03-10T00:47:56.015Z,11.40
2023-03-10T00:51:00.361Z,11.30
2023-03-10T00:54:04.081Z,11.40
2023-03-10T00:57:07.098Z,11.30
2023-03-10T01:00:11.457Z,11.40
2023-03-10T01:03:14.281Z,11.30
2023-03-10T01:06:18.459Z,11.30
2023-03-10T01:09:21.455Z,11.20
2023-03-10T01:12:24.351Z,11.20
2023-03-10T01:15:27.191Z,11.20
2023-03-10T01:18:30.006Z,11.20
2023-03-10T01:21:36.419Z,11.30
2023-03-10T01:24:39.233Z,11.20
2023-03-10T01:27:43.116Z,11.20
2023-03-10T01:30:46.258Z,11.30
2023-03-10T01:33:49.330Z,11.30
2023-03-10T01:36:53.501Z,11.20
2023-03-10T01:39:56.406Z,11.20
2023-03-10T01:43:27.413Z,11.10
2023-03-10T01:46:48.585Z,11.10
2023-03-10T01:49:51.497Z,11.10
2023-03-10T01:52:58.545Z,11.10
2023-03-10T01:56:04.959Z,11.10
2023-03-10T01:59:08.471Z,11.00
2023-03-10T02:02:12.154Z,11.10
2023-03-10T02:05:15.809Z,11.10
2023-03-10T02:08:21.100Z,11.00
2023-03-10T02:11:24.720Z,11.00
2023-03-10T02:14:27.874Z,10.90
2023-03-10T02:17:30.964Z,10.90
2023-03-10T02:20:41.062Z,10.80
2023-03-10T02:24:00.936Z,10.80
2023-03-10T02:27:12.339Z,10.90
2023-03-10T02:30:19.609Z,10.90
2023-03-10T02:33:27.127Z,10.90
2023-03-10T02:36:30.113Z,10.90
2023-03-10T02:39:32.933Z,11.00
2023-03-10T02:42:37.822Z,11.00
2023-03-10T02:45:43.522Z,10.90
2023-03-10T02:48:46.348Z,10.90
2023-03-10T02:51:49.195Z,10.90
2023-03-10T02:54:52.014Z,10.80
2023-03-10T02:57:56.308Z,10.80
2023-03-10T03:00:59.365Z,10.80
2023-03-10T03:04:02.691Z,10.80
2023-03-10T03:07:05.729Z,10.80
2023-03-10T03:10:09.287Z,10.80
2023-03-10T03:13:13.727Z,10.80
2023-03-10T03:16:16.751Z,10.80
2023-03-10T03:19:19.594Z,10.90
2023-03-10T03:22:22.580Z,10.90
2023-03-10T03:25:27.673Z,10.90
2023-03-10T03:28:32.206Z,10.90
2023-03-10T03:31:35.074Z,10.90
2023-03-10T03:34:37.898Z,10.80
2023-03-10T03:37:40.714Z,10.80
2023-03-10T03:40:45.115Z,10.80
2023-03-10T03:43:49.286Z,10.70
2023-03-10T03:46:52.093Z,10.80
2023-03-10T03:49:54.900Z,10.70
2023-03-10T03:52:58.196Z,10.30
2023-03-10T03:56:01.024Z,10.20
2023-03-10T03:59:05.230Z,10.20
2023-03-10T04:02:08.109Z,10.40
2023-03-10T04:05:11.286Z,10.40
2023-03-10T04:08:14.448Z,10.30
2023-03-10T04:11:17.378Z,10.20
2023-03-10T04:14:21.590Z,10.20
2023-03-10T04:17:24.424Z,10.20
2023-03-10T04:20:27.497Z,10.10
2023-03-10T04:23:30.318Z,10.20
2023-03-10T04:26:33.432Z,10.10
2023-03-10T04:29:38.079Z,10.00
2023-03-10T04:32:40.992Z,10.00
2023-03-10T04:35:47.482Z,10.00
2023-03-10T04:38:50.454Z,10.10
2023-03-10T04:41:53.317Z,10.10
2023-03-10T04:44:57.667Z,10.20
2023-03-10T04:48:00.521Z,10.20
2023-03-10T04:51:05.484Z,10.20
2023-03-10T04:54:08.709Z,10.30
2023-03-10T04:57:11.549Z,10.40
2023-03-10T05:00:16.389Z,10.40
2023-03-10T05:03:19.259Z,10.40
2023-03-10T05:06:23.158Z,10.60
2023-03-10T05:09:26.044Z,10.60
2023-03-10T05:12:28.965Z,10.70
2023-03-10T05:15:35.358Z,10.80
2023-03-10T05:18:38.191Z,10.70
2023-03-10T05:21:40.993Z,10.70
2023-03-10T05:24:43.884Z,10.70
2023-03-10T05:27:46.813Z,10.70
2023-03-10T05:30:51.016Z,10.80
2023-03-10T05:33:54.360Z,10.70
2023-03-10T05:36:57.246Z,10.80
2023-03-10T05:40:00.244Z,10.80
2023-03-10T05:43:03.363Z,10.70
2023-03-10T05:46:08.277Z,10.70
2023-03-10T05:49:11.117Z,10.70
2023-03-10T05:52:13.946Z,10.70
2023-03-10T05:55:19.310Z,10.80
2023-03-10T05:58:22.168Z,10.80
2023-03-10T06:01:26.327Z,10.80
2023-03-10T06:04:32.249Z,10.90
2023-03-10T06:07:36.080Z,11.00
2023-03-10T06:10:38.938Z,11.00
2023-03-10T06:13:41.824Z,11.10
2023-03-10T06:16:51.291Z,11.10
2023-03-10T06:19:54.327Z,11.00
2023-03-10T06:22:57.157Z,11.00
2023-03-10T06:26:01.835Z,11.10
2023-03-10T06:29:05.322Z,11.20
2023-03-10T06:32:09.653Z,11.30
2023-03-10T06:35:15.154Z,11.50
2023-03-10T06:38:18.132Z,11.50
2023-03-10T06:41:21.604Z,11.50
2023-03-10T06:44:24.446Z,11.60
2023-03-10T06:47:28.624Z,11.60
2023-03-10T06:50:31.787Z,11.60
2023-03-10T06:53:34.690Z,11.60
2023-03-10T06:56:37.515Z,11.60
2023-03-10T06:59:40.348Z,11.60
2023-03-10T07:02:44.711Z,11.60
2023-03-10T07:05:47.635Z,11.60
2023-03-10T07:08:51.174Z,11.60
2023-03-10T07:11:54.101Z,11.70
2023-03-10T07:14:56.946Z,11.80
2023-03-10T07:18:01.125Z,11.80
2023-03-10T07:21:08.466Z,11.80
2023-03-10T07:24:11.302Z,11.90
2023-03-10T07:27:14.402Z,11.90
2023-03-10T07:30:17.641Z,11.90
2023-03-10T07:33:21.948Z,12.00
2023-03-10T07:36:24.825Z,12.00
2023-03-10T07:39:28.662Z,12.00
2023-03-10T07:42:31.823Z,12.00
2023-03-10T07:45:35.633Z,12.00
2023-03-10T07:48:40.442Z,12.10
2023-03-10T07:51:43.454Z,12.10
2023-03-10T07:54:46.949Z,12.10
2023-03-10T07:57:50.033Z,12.10
2023-03-10T08:00:57.053Z,12.20
2023-03-10T08:04:01.567Z,12.20
2023-03-10T08:07:04.479Z,12.30
2023-03-10T08:10:08.916Z,12.20
2023-03-10T08:13:12.136Z,12.20
2023-03-10T08:16:15.993Z,12.20
2023-03-10T08:19:20.269Z,12.30
2023-03-10T08:22:23.087Z,12.30
2023-03-10T08:25:26.079Z,12.40
2023-03-10T08:28:30.741Z,12.50
2023-03-10T08:31:33.968Z,12.60
2023-03-10T08:34:38.856Z,12.50
2023-03-10T08:37:43.240Z,12.60
2023-03-10T08:40:46.438Z,12.60
2023-03-10T08:43:50.616Z,12.70
2023-03-10T08:46:54.027Z,12.70
2023-03-10T08:49:58.429Z,12.80
2023-03-10T08:53:04.209Z,12.90
2023-03-10T08:56:07.982Z,13.00
2023-03-10T08:59:11.433Z,13.10
2023-03-10T09:02:15.200Z,13.10
2023-03-10T09:05:21.733Z,13.20
2023-03-10T09:08:27.305Z,13.30
2023-03-10T09:11:32.853Z,13.40
2023-03-10T09:14:35.951Z,13.50
2023-03-10T09:17:40.778Z,13.60
2023-03-10T09:20:46.023Z,13.60
2023-03-10T09:23:52.773Z,13.50
2023-03-10T09:26:57.562Z,13.50
2023-03-10T09:30:01.500Z,13.70
2023-03-10T09:33:05.125Z,13.80
2023-03-10T09:36:11.158Z,13.70
2023-03-10T09:39:14.001Z,13.80
2023-03-10T09:42:38.351Z,13.90
2023-03-10T09:45:46.987Z,13.70
2023-03-10T09:48:56.829Z,13.70
2023-03-10T09:52:01.337Z,13.70
2023-03-10T09:55:14.915Z,13.70
2023-03-10T09:58:33.489Z,13.60
2023-03-10T10:01:37.421Z,13.40
2023-03-10T10:04:42.877Z,13.30
2023-03-10T10:07:49.595Z,13.10
2023-03-10T10:10:55.757Z,12.90
2023-03-10T10:14:22.380Z,12.70
2023-03-10T10:17:55.121Z,12.30
2023-03-10T10:21:09.414Z,12.10
2023-03-10T10:24:14.358Z,12.00
2023-03-10T10:27:19.971Z,11.80
2023-03-10T10:30:33.417Z,11.60
2023-03-10T10:33:54.024Z,11.30
2023-03-10T10:36:57.729Z,11.40
2023-03-10T10:40:01.512Z,11.30
2023-03-10T10:43:07.648Z,11.10
2023-03-10T10:46:13.956Z,10.80
2023-03-10T10:49:22.977Z,10.90
2023-03-10T10:52:27.090Z,10.90
2023-03-10T10:55:34.369Z,11.00
2023-03-10T10:58:38.976Z,10.80
2023-03-10T11:01:51.867Z,10.90
2023-03-10T11:04:54.740Z,10.90
2023-03-10T11:07:58.090Z,11.00
2023-03-10T11:11:07.332Z,11.00
2023-03-10T11:14:33.951Z,10.90
2023-03-10T11:17:45.193Z,11.00
2023-03-10T11:20:56.226Z,11.10
2023-03-10T11:24:04.949Z,11.30
2023-03-10T11:27:15.525Z,11.40
2023-03-10T11:30:21.196Z,11.30
2023-03-10T11:33:33.180Z,11.40
2023-03-10T11:36:55.484Z,11.70
2023-03-10T11:40:15.817Z,12.30
2023-03-10T11:43:29.502Z,12.60
2023-03-10T11:46:37.350Z,12.90
2023-03-10T11:49:43.893Z,13.20
2023-03-10T11:52:47.664Z,13.50
2023-03-10T11:55:52.563Z,13.60
2023-03-10T11:58:59.078Z,13.60
2023-03-10T12:02:11.626Z,13.60
2023-03-10T12:05:21.513Z,13.50
2023-03-10T12:08:29.367Z,13.90
2023-03-10T12:11:32.332Z,14.10
2023-03-10T12:14:36.197Z,14.30
2023-03-10T12:17:40.079Z,14.40
2023-03-10T12:20:44.595Z,14.10
2023-03-10T12:23:48.897Z,14.40
2023-03-10T12:27:03.306Z,14.30
2023-03-10T12:30:38.888Z,13.90
2023-03-10T12:33:47.304Z,13.70
2023-03-10T12:36:53.781Z,13.80
2023-03-10T12:39:56.601Z,13.80
2023-03-10T12:42:59.422Z,13.80
2023-03-10T12:46:04.079Z,14.10
2023-03-10T12:49:18.189Z,14.10
2023-03-10T12:52:30.310Z,13.90
2023-03-10T12:55:34.133Z,13.50
2023-03-10T12:58:38.364Z,13.50
2023-03-10T13:01:55.459Z,13.60
2023-03-10T13:05:03.725Z,13.80
2023-03-10T13:08:18.642Z,13.70
2023-03-10T13:11:27.927Z,13.80
2023-03-10T13:14:37.818Z,13.70
2023-03-10T13:17:40.621Z,13.60
2023-03-10T13:20:43.536Z,13.60
2023-03-10T13:23:47.725Z,13.40
2023-03-10T13:27:02.681Z,13.30
2023-03-10T13:30:15.620Z,13.30
2023-03-10T13:33:24.698Z,13.30
2023-03-10T13:36:33.731Z,13.00
2023-03-10T13:39:38.741Z,12.90
2023-03-10T13:42:44.693Z,12.90
2023-03-10T13:45:54.404Z,12.90
2023-03-10T13:49:03.695Z,12.80
2023-03-10T13:52:13.268Z,12.80
2023-03-10T13:55:18.493Z,12.90
2023-03-10T13:58:21.386Z,12.80
2023-03-10T14:01:26.699Z,12.80
2023-03-10T14:04:44.688Z,12.70
2023-03-10T14:08:00.589Z,12.60
2023-03-10T14:11:32.936Z,12.50
2023-03-10T14:14:38.542Z,12.40
2023-03-10T14:17:42.003Z,12.30
2023-03-10T14:20:46.608Z,12.10
2023-03-10T14:23:49.459Z,12.20
2023-03-10T14:26:53.690Z,12.20
2023-03-10T14:29:58.545Z,12.20
2023-03-10T14:33:02.610Z,12.20
2023-03-10T14:36:10.752Z,12.20
2023-03-10T14:39:13.641Z,12.30
2023-03-10T14:42:22.008Z,12.30
2023-03-10T14:45:28.803Z,12.20
2023-03-10T14:48:36.505Z,12.20
2023-03-10T14:51:39.306Z,12.30
2023-03-10T14:54:42.218Z,12.10
2023-03-10T14:57:48.548Z,12.20
2023-03-10T15:00:51.835Z,12.10
2023-03-10T15:03:54.645Z,11.90
2023-03-10T15:06:57.454Z,11.90
2023-03-10T15:10:11.208Z,11.80
2023-03-10T15:13:18.177Z,11.60
2023-03-10T15:16:21.093Z,11.50
2023-03-10T15:19:26.085Z,11.40
2023-03-10T15:22:28.915Z,11.30
2023-03-10T15:25:31.813Z,11.20
2023-03-10T15:28:37.224Z,11.00
2023-03-10T15:31:40.214Z,11.00
2023-03-10T15:34:43.163Z,11.00
2023-03-10T15:37:46.297Z,10.70
2023-03-10T15:40:49.115Z,10.70
2023-03-10T15:43:53.308Z,10.70
2023-03-10T15:46:56.243Z,10.60
2023-03-10T15:49:59.365Z,10.50
2023-03-10T15:53:02.347Z,10.60
2023-03-10T15:56:08.787Z,10.60
2023-03-10T15:59:13.070Z,10.50
2023-03-10T16:02:16.232Z,10.50
2023-03-10T16:05:20.287Z,10.40
2023-03-10T16:08:23.111Z,10.40
2023-03-10T16:11:26.132Z,10.60
2023-03-10T16:14:30.978Z,10.50
2023-03-10T16:17:33.836Z,10.50
2023-03-10T16:20:36.696Z,10.50
2023-03-10T16:23:39.615Z,10.30
2023-03-10T16:26:44.662Z,10.30
2023-03-10T16:29:48.963Z,10.30
2023-03-10T16:32:52.155Z,10.30
2023-03-10T16:35:55.206Z,10.20
2023-03-10T16:38:58.648Z,10.20
2023-03-10T16:42:01.678Z,10.20
2023-03-10T16:45:07.657Z,10.30
2023-03-10T16:48:10.489Z,10.30
2023-03-10T16:51:23.507Z,10.20
2023-03-10T16:54:26.497Z,10.30
2023-03-10T16:57:29.343Z,10.10
2023-03-10T17:00:33.809Z,10.00
2023-03-10T17:03:39.868Z,10.00
2023-03-10T17:06:43.001Z,10.10
2023-03-10T17:09:45.846Z,10.10
2023-03-10T17:12:48.755Z,10.10
2023-03-10T17:15:52.937Z,10.10
2023-03-10T17:18:56.689Z,10.10
2023-03-10T17:22:00.162Z,10.10
2023-03-10T17:25:03.033Z,10.00
2023-03-10T17:28:08.336Z,9.90
2023-03-10T17:31:14.676Z,9.80
2023-03-10T17:34:17.684Z,9.70
2023-03-10T17:37:20.523Z,9.70
2023-03-10T17:40:23.997Z,9.80
2023-03-10T17:43:34.070Z,9.80
2023-03-10T17:46:40.740Z,9.80
2023-03-10T17:49:43.609Z,9.90
2023-03-10T17:52:48.905Z,9.80
2023-03-10T17:55:51.988Z,9.70
2023-03-10T17:58:55.524Z,9.60
2023-03-10T18:02:00.543Z,9.50
2023-03-10T18:05:04.099Z,9.50
2023-03-10T18:08:06.955Z,9.40
2023-03-10T18:11:10.575Z,9.20
2023-03-10T18:14:13.490Z,9.30
2023-03-10T18:17:17.652Z,9.30
2023-03-10T18:20:20.515Z,9.30
2023-03-10T18:23:23.378Z,9.30
2023-03-10T18:26:27.700Z,9.30
2023-03-10T18:29:30.562Z,9.30
2023-03-10T18:32:35.334Z,9.30
2023-03-10T18:35:39.648Z,9.20
2023-03-10T18:38:42.570Z,9.30
2023-03-10T18:41:45.402Z,9.40
2023-03-10T18:44:48.388Z,9.20
2023-03-10T18:47:52.542Z,9.20
2023-03-10T18:50:56.398Z,9.30
2023-03-10T18:53:59.369Z,9.00
2023-03-10T18:57:02.361Z,8.20
2023-03-10T19:00:07.580Z,7.90
2023-03-10T19:03:13.373Z,7.90
2023-03-10T19:06:16.358Z,8.00
2023-03-10T19:09:20.335Z,7.90
2023-03-10T19:12:24.862Z,8.10
2023-03-10T19:15:27.713Z,8.10
2023-03-10T19:18:31.866Z,8.10
2023-03-10T19:21:37.083Z,8.00
2023-03-10T19:24:39.978Z,8.10
2023-03-10T19:27:42.803Z,8.00
2023-03-10T19:30:45.648Z,8.10
2023-03-10T19:33:50.095Z,8.20
2023-03-10T19:36:52.965Z,8.20
2023-03-10T19:39:55.785Z,8.40
2023-03-10T19:42:59.158Z,8.60
2023-03-10T19:46:02.566Z,8.50
2023-03-10T19:49:08.090Z,8.40
2023-03-10T19:52:11.026Z,8.30
2023-03-10T19:55:17.792Z,8.40
2023-03-10T19:58:20.719Z,8.30
2023-03-10T20:01:26.060Z,8.20
2023-03-10T20:04:34.424Z,8.30
2023-03-10T20:07:38.719Z,8.30
2023-03-10T20:10:41.582Z,8.10
2023-03-10T20:13:44.449Z,8.10
2023-03-10T20:16:47.326Z,8.10
2023-03-10T20:19:51.551Z,8.10
2023-03-10T20:22:54.444Z,8.30
2023-03-10T20:26:01.989Z,8.30
2023-03-10T20:29:04.904Z,8.40
2023-03-10T20:32:07.865Z,8.30
2023-03-10T20:35:13.321Z,8.20
2023-03-10T20:38:16.159Z,8.10
2023-03-10T20:41:20.644Z,8.10
2023-03-10T20:44:23.477Z,8.10
2023-03-10T20:47:26.465Z,8.20
2023-03-10T20:50:30.783Z,8.20
2023-03-10T20:53:37.132Z,8.20
2023-03-10T20:56:39.984Z,8.20
2023-03-10T20:59:42.801Z,8.30
2023-03-10T21:02:46.236Z,8.30
2023-03-10T21:05:50.475Z,8.20
2023-03-10T21:08:53.340Z,8.00
2023-03-10T21:11:56.186Z,8.00
2023-03-10T21:14:59.267Z,7.80
2023-03-10T21:18:02.138Z,7.70
2023-03-10T21:21:09.368Z,7.60
2023-03-10T21:24:12.377Z,7.50
2023-03-10T21:27:15.198Z,7.10
2023-03-10T21:30:18.663Z,6.90
2023-03-10T21:33:23.025Z,6.90
2023-03-10T21:36:27.798Z,7.00
2023-03-10T21:39:30.682Z,6.90
2023-03-10T21:42:33.592Z,6.90
2023-03-10T21:45:37.408Z,6.80
2023-03-10T21:48:40.317Z,6.90
2023-03-10T21:51:44.709Z,6.80
2023-03-10T21:54:47.663Z,6.70
2023-03-10T21:57:50.696Z,6.80
2023-03-10T22:00:56.051Z,6.70
2023-03-10T22:03:59.124Z,6.70
2023-03-10T22:07:04.038Z,6.60
2023-03-10T22:10:07.664Z,6.70
2023-03-10T22:13:10.522Z,6.60
2023-03-10T22:16:16.934Z,6.70
2023-03-10T22:19:20.007Z,6.50
2023-03-10T22:22:24.715Z,6.40
2023-03-10T22:25:28.015Z,6.30
2023-03-10T22:28:30.938Z,6.40
2023-03-10T22:31:33.915Z,6.30
2023-03-10T22:34:36.756Z,6.20
2023-03-10T22:37:42.110Z,6.10
2023-03-10T22:40:44.913Z,6.10
2023-03-10T22:43:47.957Z,6.00
2023-03-10T22:46:50.798Z,5.80
2023-03-10T22:49:53.641Z,5.70
2023-03-10T22:52:57.832Z,5.80
2023-03-10T22:56:00.668Z,5.80
2023-03-10T22:59:06.002Z,5.60
2023-03-10T23:02:10.643Z,5.50
2023-03-10T23:05:13.743Z,5.50
2023-03-10T23:08:18.019Z,5.40
2023-03-10T23:11:22.168Z,5.40
2023-03-10T23:14:24.998Z,5.40
2023-03-10T23:17:27.852Z,5.40
2023-03-10T23:20:33.283Z,5.40
2023-03-10T23:23:39.210Z,5.40
2023-03-10T23:26:42.045Z,5.50
2023-03-10T23:29:44.870Z,5.40
2023-03-10T23:32:50.029Z,5.60
2023-03-10T23:35:54.308Z,5.50
2023-03-10T23:38:58.788Z,5.50
2023-03-10T23:42:01.675Z,5.70
2023-03-10T23:45:05.445Z,5.60
2023-03-10T23:48:11.984Z,5.60
2023-03-10T23:51:16.174Z,5.50
2023-03-10T23:54:22.439Z,5.50
2023-03-10T23:57:25.457Z,5.40
